createdAt,value
2023-01-21T00:01:08.109Z,100218.03
2023-01-21T00:03:35.198Z,100222.47
2023-01-21T00:06:02.755Z,100223.28
2023-01-21T00:08:29.775Z,100216.38
2023-01-21T00:10:56.763Z,100220.66
2023-01-21T00:13:23.784Z,100222.34
2023-01-21T00:15:53.669Z,100231.16
2023-01-21T00:18:20.586Z,100232.97
2023-01-21T00:20:47.515Z,100223.28
2023-01-21T00:23:14.452Z,100225.09
2023-01-21T00:25:41.420Z,100223.28
2023-01-21T00:28:08.351Z,100232.13
2023-01-21T00:30:36.785Z,100229.50
2023-01-21T00:33:04.528Z,100226.97
2023-01-21T00:35:31.473Z,100223.50
2023-01-21T00:37:58.459Z,100232.34
2023-01-21T00:40:26.193Z,100233.31
2023-01-21T00:42:53.100Z,100232.59
2023-01-21T00:45:20.183Z,100234.38
2023-01-21T00:47:47.452Z,100240.47
2023-01-21T00:50:14.494Z,100235.34
2023-01-21T00:52:41.491Z,100241.53
2023-01-21T00:55:08.909Z,100247.72
2023-01-21T00:57:35.884Z,100246.19
2023-01-21T01:00:04.577Z,100246.19
2023-01-21T01:02:31.490Z,100254.19
2023-01-21T01:04:58.424Z,100250.72
2023-01-21T01:07:25.344Z,100255.97
2023-01-21T01:09:52.242Z,100252.63
2023-01-21T01:12:19.160Z,100265.84
2023-01-21T01:14:47.456Z,100269.44
2023-01-21T01:17:14.370Z,100262.53
2023-01-21T01:19:41.292Z,100280.06
2023-01-21T01:22:08.190Z,100274.06
2023-01-21T01:24:35.112Z,100276.69
2023-01-21T01:27:02.007Z,100287.19
2023-01-21T01:29:28.993Z,100292.56
2023-01-21T01:31:55.926Z,100286.47
2023-01-21T01:34:22.969Z,100296.25
2023-01-21T01:36:50.190Z,100298.88
2023-01-21T01:39:17.163Z,100296.38
2023-01-21T01:41:44.300Z,100300.06
2023-01-21T01:44:57.039Z,100304.59
2023-01-21T01:47:43.770Z,100302.94
2023-01-21T01:50:16.960Z,100304.81
2023-01-21T01:52:44.625Z,100304.09
2023-01-21T01:55:15.278Z,100306.00
2023-01-21T01:57:48.364Z,100300.00
2023-01-21T02:00:16.602Z,100303.59
2023-01-21T02:03:04.672Z,100306.44
2023-01-21T02:05:34.707Z,100305.81
2023-01-21T02:08:01.988Z,100314.78
2023-01-21T02:10:29.995Z,100316.69
2023-01-21T02:12:57.406Z,100316.88
2023-01-21T02:15:35.906Z,100323.19
2023-01-21T02:18:48.308Z,100327.81
2023-01-21T02:22:10.277Z,100339.38
2023-01-21T02:25:25.173Z,100345.66
2023-01-21T02:28:32.278Z,100339.72
2023-01-21T02:31:26.742Z,100342.56
2023-01-21T02:33:55.119Z,100341.94
2023-01-21T02:36:43.856Z,100338.59
2023-01-21T02:39:58.194Z,100343.94
2023-01-21T02:42:59.304Z,100346.66
2023-01-21T02:45:46.706Z,100352.03
2023-01-21T02:48:32.766Z,100360.84
2023-01-21T02:50:59.709Z,100362.63
2023-01-21T02:53:30.195Z,100361.06
2023-01-21T02:56:05.536Z,100358.53
2023-01-21T02:58:36.937Z,100371.75
2023-01-21T03:01:40.943Z,100366.75
2023-01-21T03:04:50.090Z,100373.88
2023-01-21T03:07:34.518Z,100372.44
2023-01-21T03:10:22.310Z,100370.00
2023-01-21T03:13:12.911Z,100372.84
2023-01-21T03:16:12.783Z,100377.38
2023-01-21T03:18:46.409Z,100383.75
2023-01-21T03:21:21.316Z,100381.25
2023-01-21T03:23:51.438Z,100385.66
2023-01-21T03:26:35.722Z,100387.53
2023-01-21T03:29:13.127Z,100382.50
2023-01-21T03:31:42.574Z,100392.16
2023-01-21T03:34:15.104Z,100389.66
2023-01-21T03:36:58.147Z,100387.94
2023-01-21T03:39:49.678Z,100390.69
2023-01-21T03:42:17.585Z,100394.97
2023-01-21T03:44:46.188Z,100390.56
2023-01-21T03:47:28.661Z,100394.03
2023-01-21T03:50:07.673Z,100393.94
2023-01-21T03:52:36.057Z,100397.28
2023-01-21T03:55:03.028Z,100406.81
2023-01-21T03:57:30.030Z,100409.44
2023-01-21T03:59:57.050Z,100411.13
2023-01-21T04:02:24.194Z,100415.41
2023-01-21T04:04:53.028Z,100413.53
2023-01-21T04:07:20.213Z,100421.41
2023-01-21T04:09:47.221Z,100424.03
2023-01-21T04:12:14.125Z,100426.53
2023-01-21T04:14:41.047Z,100426.53
2023-01-21T04:17:08.315Z,100427.38
2023-01-21T04:19:35.459Z,100428.31
2023-01-21T04:22:02.436Z,100428.31
2023-01-21T04:24:29.408Z,100425.88
2023-01-21T04:26:56.338Z,100427.78
2023-01-21T04:29:23.267Z,100431.47
2023-01-21T04:31:50.229Z,100434.28
2023-01-21T04:34:17.208Z,100438.91
2023-01-21T04:36:44.103Z,100438.28
2023-01-21T04:39:11.403Z,100432.41
2023-01-21T04:41:38.467Z,100442.34
2023-01-21T04:44:05.514Z,100448.00
2023-01-21T04:46:32.435Z,100440.38
2023-01-21T04:48:59.415Z,100451.16
2023-01-21T04:51:26.345Z,100445.25
2023-01-21T04:53:53.281Z,100443.81
2023-01-21T04:56:20.201Z,100451.00
2023-01-21T04:58:47.141Z,100450.41
2023-01-21T05:01:14.082Z,100448.91
2023-01-21T05:03:41.113Z,100448.28
2023-01-21T05:06:08.208Z,100451.22
2023-01-21T05:08:35.131Z,100456.72
2023-01-21T05:11:02.056Z,100455.16
2023-01-21T05:13:28.977Z,100468.53
2023-01-21T05:15:56.371Z,100468.75
2023-01-21T05:18:23.410Z,100476.78
2023-01-21T05:20:50.332Z,100479.63
2023-01-21T05:23:17.242Z,100473.56
2023-01-21T05:25:44.153Z,100475.41
2023-01-21T05:28:11.056Z,100472.91
2023-01-21T05:30:40.435Z,100479.06
2023-01-21T05:33:07.996Z,100485.25
2023-01-21T05:35:35.674Z,100486.19
2023-01-21T05:38:02.632Z,100490.66
2023-01-21T05:40:29.654Z,100499.47
2023-01-21T05:42:56.574Z,100496.09
2023-01-21T05:45:23.626Z,100506.69
2023-01-21T05:47:50.638Z,100497.16
2023-01-21T05:50:17.832Z,100512.84
2023-01-21T05:52:44.930Z,100509.47
2023-01-21T05:55:11.844Z,100513.03
2023-01-21T05:57:38.762Z,100519.22
2023-01-21T06:00:06.574Z,100517.53
2023-01-21T06:02:33.592Z,100509.69
2023-01-21T06:05:00.570Z,100523.72
2023-01-21T06:07:27.487Z,100522.94
2023-01-21T06:09:54.419Z,100523.88
2023-01-21T06:12:22.722Z,100524.81
2023-01-21T06:14:50.743Z,100526.59
2023-01-21T06:17:17.696Z,100534.56
2023-01-21T06:19:44.631Z,100538.09
2023-01-21T06:22:16.545Z,100546.03
2023-01-21T06:24:43.623Z,100546.13
2023-01-21T06:27:10.887Z,100545.41
2023-01-21T06:29:37.854Z,100546.34
2023-01-21T06:32:05.251Z,100542.03
2023-01-21T06:34:32.259Z,100554.25
2023-01-21T06:36:59.171Z,100556.03
2023-01-21T06:39:26.130Z,100564.81
2023-01-21T06:41:55.210Z,100566.59
2023-01-21T06:44:22.681Z,100571.94
2023-01-21T06:47:00.060Z,100569.31
2023-01-21T06:49:27.587Z,100575.47
2023-01-21T06:51:54.493Z,100580.72
2023-01-21T06:54:21.402Z,100578.19
2023-01-21T06:56:48.318Z,100585.19
2023-01-21T06:59:15.228Z,100576.50
2023-01-21T07:01:42.373Z,100585.28
2023-01-21T07:04:09.411Z,100578.47
2023-01-21T07:06:37.147Z,100591.53
2023-01-21T07:09:05.667Z,100596.03
2023-01-21T07:11:33.037Z,100593.50
2023-01-21T07:14:00.102Z,100593.59
2023-01-21T07:16:27.133Z,100591.91
2023-01-21T07:18:54.117Z,100593.78
2023-01-21T07:21:21.051Z,100604.25
2023-01-21T07:23:48.003Z,100600.97
2023-01-21T07:26:15.059Z,100601.91
2023-01-21T07:28:41.980Z,100608.91
2023-01-21T07:31:09.442Z,100606.47
2023-01-21T07:33:36.661Z,100616.06
2023-01-21T07:36:03.855Z,100618.78
2023-01-21T07:38:30.808Z,100626.72
2023-01-21T07:40:57.767Z,100626.72
2023-01-21T07:43:24.886Z,100641.59
2023-01-21T07:45:51.874Z,100642.41
2023-01-21T07:48:18.841Z,100643.25
2023-01-21T07:50:45.802Z,100637.19
2023-01-21T07:53:13.667Z,100652.78
2023-01-21T07:55:40.701Z,100645.78
2023-01-21T07:58:07.639Z,100652.69
2023-01-21T08:00:34.540Z,100651.84
2023-01-21T08:03:01.852Z,100651.84
2023-01-21T08:05:28.787Z,100656.06
2023-01-21T08:07:58.391Z,100659.53
2023-01-21T08:10:25.585Z,100667.38
2023-01-21T08:12:52.499Z,100662.88
2023-01-21T08:15:19.802Z,100664.47
2023-01-21T08:17:48.672Z,100673.91
2023-01-21T08:20:15.766Z,100665.03
2023-01-21T08:22:42.678Z,100660.47
2023-01-21T08:25:11.070Z,100659.34
2023-01-21T08:27:38.080Z,100665.25
2023-01-21T08:30:05.723Z,100662.44
2023-01-21T08:32:32.653Z,100663.09
2023-01-21T08:34:59.588Z,100664.56
2023-01-21T08:37:27.031Z,100667.88
2023-01-21T08:39:54.158Z,100665.03
2023-01-21T08:42:21.131Z,100667.41
2023-01-21T08:44:50.901Z,100670.69
2023-01-21T08:47:18.577Z,100673.00
2023-01-21T08:49:45.536Z,100680.56
2023-01-21T08:52:12.699Z,100682.91
2023-01-21T08:54:41.282Z,100680.84
2023-01-21T08:57:08.471Z,100691.97
2023-01-21T08:59:35.745Z,100686.47
2023-01-21T09:02:02.782Z,100688.78
2023-01-21T09:04:29.766Z,100684.09
2023-01-21T09:06:56.711Z,100692.69
2023-01-21T09:09:23.678Z,100692.41
2023-01-21T09:11:52.316Z,100692.16
2023-01-21T09:14:20.020Z,100691.94
2023-01-21T09:16:49.637Z,100693.44
2023-01-21T09:19:17.134Z,100688.00
2023-01-21T09:21:44.272Z,100687.81
2023-01-21T09:24:11.272Z,100701.47
2023-01-21T09:26:43.860Z,100694.25
2023-01-21T09:29:11.218Z,100708.00
2023-01-21T09:31:38.305Z,100708.53
2023-01-21T09:34:05.767Z,100715.16
2023-01-21T09:36:34.741Z,100721.06
2023-01-21T09:39:01.900Z,100717.28
2023-01-21T09:41:53.261Z,100716.06
2023-01-21T09:44:31.243Z,100722.69
2023-01-21T09:47:32.369Z,100718.00
2023-01-21T09:50:21.549Z,100715.06
2023-01-21T09:53:01.247Z,100716.44
2023-01-21T09:55:39.262Z,100716.16
2023-01-21T09:59:03.907Z,100716.72
2023-01-21T10:01:37.985Z,100720.78
2023-01-21T10:04:41.523Z,100717.88
2023-01-21T10:07:24.870Z,100713.28
2023-01-21T10:10:21.272Z,100717.25
2023-01-21T10:13:15.617Z,100714.34
2023-01-21T10:16:00.207Z,100711.53
2023-01-21T10:18:31.273Z,100708.69
2023-01-21T10:21:40.518Z,100711.03
2023-01-21T10:24:15.732Z,100710.81
2023-01-21T10:26:45.249Z,100717.66
2023-01-21T10:29:22.475Z,100716.47
2023-01-21T10:32:02.860Z,100720.59
2023-01-21T10:34:32.296Z,100721.31
2023-01-21T10:37:22.427Z,100727.22
2023-01-21T10:40:43.563Z,100724.25
2023-01-21T10:43:32.743Z,100727.41
2023-01-21T10:46:27.588Z,100717.56
2023-01-21T10:49:27.386Z,100714.59
2023-01-21T10:52:13.880Z,100711.56
2023-01-21T10:54:59.649Z,100709.47
2023-01-21T10:57:45.635Z,100714.41
2023-01-21T11:00:37.991Z,100717.66
2023-01-21T11:03:30.933Z,100716.50
2023-01-21T11:06:00.694Z,100714.59
2023-01-21T11:08:28.449Z,100713.47
2023-01-21T11:10:56.139Z,100714.91
2023-01-21T11:13:24.079Z,100708.63
2023-01-21T11:15:57.480Z,100712.59
2023-01-21T11:18:38.797Z,100707.00
2023-01-21T11:21:21.224Z,100704.06
2023-01-21T11:24:04.843Z,100712.66
2023-01-21T11:26:35.544Z,100713.50
2023-01-21T11:29:24.346Z,100715.09
2023-01-21T11:32:02.312Z,100714.16
2023-01-21T11:34:30.274Z,100717.63
2023-01-21T11:37:04.116Z,100724.44
2023-01-21T11:39:49.013Z,100729.47
2023-01-21T11:42:18.924Z,100728.53
2023-01-21T11:45:05.794Z,100727.56
2023-01-21T11:47:49.790Z,100735.22
2023-01-21T11:50:29.678Z,100729.78
2023-01-21T11:53:12.243Z,100729.53
2023-01-21T11:55:55.458Z,100727.75
2023-01-21T11:58:31.907Z,100726.72
2023-01-21T12:01:03.280Z,100724.19
2023-01-21T12:03:53.684Z,100730.28
2023-01-21T12:06:26.246Z,100726.91
2023-01-21T12:08:57.444Z,100722.59
2023-01-21T12:11:27.591Z,100723.56
2023-01-21T12:14:50.996Z,100715.69
2023-01-21T12:18:01.340Z,100718.19
2023-01-21T12:21:11.742Z,100712.94
2023-01-21T12:23:49.350Z,100709.47
2023-01-21T12:26:34.588Z,100705.88
2023-01-21T12:29:38.098Z,100703.16
2023-01-21T12:32:29.681Z,100706.63
2023-01-21T12:35:08.480Z,100708.50
2023-01-21T12:37:54.263Z,100710.22
2023-01-21T12:40:36.879Z,100711.97
2023-01-21T12:43:16.513Z,100707.69
2023-01-21T12:45:54.363Z,100707.69
2023-01-21T12:48:28.526Z,100705.88
2023-01-21T12:51:06.886Z,100711.16
2023-01-21T12:53:46.659Z,100713.06
2023-01-21T12:56:34.998Z,100712.22
2023-01-21T12:59:07.933Z,100704.44
2023-01-21T13:01:57.250Z,100718.53
2023-01-21T13:05:15.217Z,100716.13
2023-01-21T13:08:05.319Z,100718.97
2023-01-21T13:10:43.998Z,100720.84
2023-01-21T13:13:18.765Z,100712.25
2023-01-21T13:15:52.601Z,100708.91
2023-01-21T13:18:29.189Z,100709.84
2023-01-21T13:21:28.449Z,100709.09
2023-01-21T13:24:10.649Z,100711.00
2023-01-21T13:27:06.160Z,100715.53
2023-01-21T13:29:50.746Z,100721.75
2023-01-21T13:32:42.462Z,100708.81
2023-01-21T13:35:45.952Z,100714.16
2023-01-21T13:38:29.300Z,100723.13
2023-01-21T13:41:25.361Z,100715.44
2023-01-21T13:44:29.131Z,100717.22
2023-01-21T13:47:26.722Z,100712.91
2023-01-21T13:50:29.787Z,100722.59
2023-01-21T13:53:36.239Z,100720.81
2023-01-21T13:56:14.954Z,100720.91
2023-01-21T13:58:48.236Z,100719.22
2023-01-21T14:01:17.241Z,100720.06
2023-01-21T14:03:52.647Z,100721.84
2023-01-21T14:06:49.710Z,100721.00
2023-01-21T14:10:08.932Z,100726.38
2023-01-21T14:12:53.722Z,100728.03
2023-01-21T14:15:52.317Z,100734.25
2023-01-21T14:18:56.400Z,100745.69
2023-01-21T14:21:30.514Z,100738.78
2023-01-21T14:24:30.938Z,100751.19
2023-01-21T14:27:57.838Z,100748.63
2023-01-21T14:30:39.083Z,100752.31
2023-01-21T14:33:14.314Z,100748.84
2023-01-21T14:35:48.460Z,100745.59
2023-01-21T14:38:39.935Z,100749.16
2023-01-21T14:41:12.308Z,100747.50
2023-01-21T14:43:48.057Z,100750.94
2023-01-21T14:46:29.905Z,100745.81
2023-01-21T14:49:00.316Z,100751.06
2023-01-21T14:51:30.868Z,100748.44
2023-01-21T14:54:03.876Z,100758.00
2023-01-21T14:56:35.277Z,100753.69
2023-01-21T14:59:24.577Z,100761.56
2023-01-21T15:02:03.629Z,100765.03
2023-01-21T15:04:41.187Z,100756.31
2023-01-21T15:07:17.421Z,100762.50
2023-01-21T15:09:53.827Z,100755.59
2023-01-21T15:12:34.500Z,100747.72
2023-01-21T15:15:24.898Z,100753.03
2023-01-21T15:17:55.311Z,100760.19
2023-01-21T15:20:58.041Z,100756.72
2023-01-21T15:23:31.060Z,100752.44
2023-01-21T15:26:11.140Z,100744.75
2023-01-21T15:28:51.895Z,100756.19
2023-01-21T15:31:22.004Z,100761.44
2023-01-21T15:33:51.938Z,100752.84
2023-01-21T15:36:44.309Z,100761.75
2023-01-21T15:39:25.191Z,100764.59
2023-01-21T15:42:05.331Z,100762.09
2023-01-21T15:45:10.421Z,100766.50
2023-01-21T15:48:17.500Z,100770.06
2023-01-21T15:50:57.309Z,100776.34
2023-01-21T15:53:48.136Z,100765.13
2023-01-21T15:56:37.341Z,100772.16
2023-01-21T16:00:19.402Z,100768.88
2023-01-21T16:03:26.945Z,100774.22
2023-01-21T16:05:58.908Z,100781.38
2023-01-21T16:08:49.030Z,100773.69
2023-01-21T16:11:27.666Z,100776.44
2023-01-21T16:14:19.519Z,100781.78
2023-01-21T16:17:17.734Z,100782.81
2023-01-21T16:19:50.076Z,100781.13
2023-01-21T16:22:28.699Z,100789.13
2023-01-21T16:25:08.515Z,100786.69
2023-01-21T16:27:36.100Z,100791.13
2023-01-21T16:30:12.751Z,100786.78
2023-01-21T16:32:39.722Z,100784.25
2023-01-21T16:35:07.159Z,100793.09
2023-01-21T16:37:34.438Z,100787.00
2023-01-21T16:40:23.671Z,100783.63
2023-01-21T16:43:21.976Z,100782.81
2023-01-21T16:46:03.911Z,100796.00
2023-01-21T16:48:33.452Z,100801.25
2023-01-21T16:51:01.732Z,100802.19
2023-01-21T16:53:28.843Z,100806.72
2023-01-21T16:55:59.234Z,100802.41
2023-01-21T16:58:33.127Z,100803.34
2023-01-21T17:01:18.790Z,100807.72
2023-01-21T17:03:49.487Z,100800.91
2023-01-21T17:06:25.755Z,100797.56
2023-01-21T17:09:04.898Z,100801.13
2023-01-21T17:11:33.689Z,100802.16
2023-01-21T17:14:07.122Z,100804.75
2023-01-21T17:16:36.959Z,100806.66
2023-01-21T17:19:09.329Z,100807.59
2023-01-21T17:21:45.084Z,100797.22
2023-01-21T17:24:43.888Z,100799.91
2023-01-21T17:27:18.072Z,100796.44
2023-01-21T17:29:45.555Z,100802.53
2023-01-21T17:32:31.442Z,100809.56
2023-01-21T17:35:16.603Z,100814.81
2023-01-21T17:38:03.363Z,100815.66
2023-01-21T17:41:03.409Z,100815.66
2023-01-21T17:43:30.403Z,100817.44
2023-01-21T17:45:57.991Z,100820.06
2023-01-21T17:48:45.880Z,100814.81
2023-01-21T17:51:19.015Z,100820.06
2023-01-21T17:53:59.395Z,100813.03
2023-01-21T17:56:47.893Z,100807.72
2023-01-21T17:59:26.676Z,100815.56
2023-01-21T18:01:55.819Z,100817.34
2023-01-21T18:04:23.397Z,100818.19
2023-01-21T18:06:52.641Z,100826.06
2023-01-21T18:09:23.620Z,100822.59
2023-01-21T18:11:53.931Z,100822.59
2023-01-21T18:14:24.136Z,100817.34
2023-01-21T18:16:53.358Z,100820.81
2023-01-21T18:19:32.811Z,100818.19
2023-01-21T18:22:01.725Z,100812.94
2023-01-21T18:24:28.995Z,100813.78
2023-01-21T18:26:57.676Z,100815.47
2023-01-21T18:29:31.457Z,100809.38
2023-01-21T18:31:58.837Z,100809.38
2023-01-21T18:34:26.102Z,100808.44
2023-01-21T18:36:53.228Z,100809.38
2023-01-21T18:39:20.699Z,100811.06
2023-01-21T18:41:47.930Z,100818.09
2023-01-21T18:44:16.143Z,100815.47
2023-01-21T18:46:43.398Z,100816.41
2023-01-21T18:49:19.891Z,100813.78
2023-01-21T18:51:47.837Z,100814.63
2023-01-21T18:54:17.900Z,100809.50
2023-01-21T18:56:46.296Z,100811.25
2023-01-21T18:59:19.071Z,100822.59
2023-01-21T19:01:46.556Z,100813.88
2023-01-21T19:04:17.987Z,100817.44
2023-01-21T19:06:50.447Z,100813.97
2023-01-21T19:09:24.512Z,100812.19
2023-01-21T19:11:51.652Z,100809.56
2023-01-21T19:14:18.680Z,100807.88
2023-01-21T19:16:46.045Z,100798.22
2023-01-21T19:19:15.881Z,100810.50
2023-01-21T19:21:42.910Z,100809.66
2023-01-21T19:24:12.136Z,100810.50
2023-01-21T19:26:39.813Z,100813.13
2023-01-21T19:29:15.053Z,100809.78
2023-01-21T19:31:42.212Z,100810.63
2023-01-21T19:34:10.621Z,100808.09
2023-01-21T19:36:39.182Z,100814.19
2023-01-21T19:39:16.000Z,100809.78
2023-01-21T19:41:43.045Z,100810.72
2023-01-21T19:44:10.067Z,100817.66
2023-01-21T19:46:37.325Z,100813.34
2023-01-21T19:49:17.204Z,100813.34
2023-01-21T19:51:44.639Z,100814.19
2023-01-21T19:54:11.701Z,100811.66
2023-01-21T19:56:38.683Z,100805.47
2023-01-21T19:59:05.852Z,100801.19
2023-01-21T20:01:32.983Z,100802.84
2023-01-21T20:04:01.155Z,100805.47
2023-01-21T20:06:40.187Z,100803.78
2023-01-21T20:09:15.392Z,100804.72
2023-01-21T20:11:42.327Z,100809.03
2023-01-21T20:14:09.612Z,100818.59
2023-01-21T20:16:45.749Z,100816.91
2023-01-21T20:19:18.323Z,100809.94
2023-01-21T20:21:59.827Z,100819.59
2023-01-21T20:24:29.999Z,100808.28
2023-01-21T20:26:58.234Z,100813.53
2023-01-21T20:29:26.881Z,100810.91
2023-01-21T20:31:54.295Z,100817.09
2023-01-21T20:34:21.395Z,100816.25
2023-01-21T20:36:50.776Z,100813.63
2023-01-21T20:39:22.300Z,100813.63
2023-01-21T20:41:49.242Z,100812.88
2023-01-21T20:44:16.195Z,100815.41
2023-01-21T20:46:45.394Z,100806.69
2023-01-21T20:49:12.512Z,100810.16
2023-01-21T20:51:39.748Z,100811.94
2023-01-21T20:54:06.718Z,100804.91
2023-01-21T20:56:33.812Z,100809.31
2023-01-21T20:59:00.740Z,100803.25
2023-01-21T21:01:28.679Z,100803.25
2023-01-21T21:03:55.675Z,100807.66
2023-01-21T21:06:28.744Z,100798.94
2023-01-21T21:08:55.746Z,100805.88
2023-01-21T21:11:22.802Z,100798.00
2023-01-21T21:13:51.970Z,100798.00
2023-01-21T21:16:27.640Z,100800.63
2023-01-21T21:18:56.149Z,100793.59
2023-01-21T21:21:24.013Z,100791.81
2023-01-21T21:23:52.220Z,100798.00
2023-01-21T21:26:25.784Z,100794.44
2023-01-21T21:28:54.778Z,100792.75
2023-01-21T21:31:23.141Z,100786.56
2023-01-21T21:33:50.514Z,100793.59
2023-01-21T21:36:23.352Z,100783.09
2023-01-21T21:38:52.476Z,100781.31
2023-01-21T21:41:41.131Z,100770.00
2023-01-21T21:44:09.849Z,100767.38
2023-01-21T21:46:56.736Z,100770.94
2023-01-21T21:49:24.312Z,100769.16
2023-01-21T21:51:51.404Z,100757.81
2023-01-21T21:54:18.771Z,100770.00
2023-01-21T21:56:46.734Z,100762.13
2023-01-21T21:59:14.918Z,100763.81
2023-01-21T22:01:43.600Z,100757.72
2023-01-21T22:04:10.829Z,100758.56
2023-01-21T22:06:38.099Z,100762.03
2023-01-21T22:09:05.833Z,100749.75
2023-01-21T22:11:32.892Z,100762.03
2023-01-21T22:14:03.622Z,100757.72
2023-01-21T22:16:31.488Z,100752.38
2023-01-21T22:18:59.841Z,100758.56
2023-01-21T22:21:33.511Z,100749.84
2023-01-21T22:24:02.599Z,100742.00
2023-01-21T22:26:30.195Z,100741.16
2023-01-21T22:28:57.869Z,100742.00
2023-01-21T22:31:28.269Z,100735.06
2023-01-21T22:33:56.879Z,100735.06
2023-01-21T22:36:26.599Z,100729.81
2023-01-21T22:38:54.117Z,100728.88
2023-01-21T22:41:23.597Z,100725.41
2023-01-21T22:43:51.637Z,100723.63
2023-01-21T22:46:24.962Z,100717.44
2023-01-21T22:48:53.793Z,100714.81
2023-01-21T22:51:22.096Z,100712.19
2023-01-21T22:53:49.899Z,100710.41
2023-01-21T22:56:21.192Z,100703.38
2023-01-21T22:58:49.186Z,100703.38
2023-01-21T23:01:31.957Z,100699.81
2023-01-21T23:04:00.343Z,100699.81
2023-01-21T23:06:28.202Z,100708.53
2023-01-21T23:08:55.724Z,100700.59
2023-01-21T23:11:22.718Z,100701.53
2023-01-21T23:13:49.780Z,100701.53
2023-01-21T23:16:19.065Z,100697.00
2023-01-21T23:18:46.138Z,100686.53
2023-01-21T23:21:18.180Z,100686.41
2023-01-21T23:23:45.395Z,100686.41
2023-01-21T23:26:13.495Z,100684.63
2023-01-21T23:28:40.785Z,100686.31
2023-01-21T23:31:13.539Z,100687.25
2023-01-21T23:33:41.491Z,100680.22
2023-01-21T23:36:12.735Z,100679.28
2023-01-21T23:38:41.507Z,100688.94
2023-01-21T23:41:11.753Z,100678.44
2023-01-21T23:43:39.241Z,100687.13
2023-01-21T23:46:09.139Z,100680.13
2023-01-21T23:48:36.104Z,100679.19
2023-01-21T23:51:10.809Z,100672.16
2023-01-21T23:53:37.953Z,100662.50
2023-01-21T23:56:16.288Z,100671.22
2023-01-21T23:58:43.307Z,100667.75
